sensor_id;sensor_type;location;lat;lon;timestamp;temperature;humidity
23237;DHT22;11787;52.018;8.570;2023-04-25T00:01:35;7.00;99.90
23237;DHT22;11787;52.018;8.570;2023-04-25T00:04:02;7.00;99.90
23237;DHT22;11787;52.018;8.570;2023-04-25T00:06:29;7.00;99.90
23237;DHT22;11787;52.018;8.570;2023-04-25T00:08:57;7.00;99.90
23237;DHT22;11787;52.018;8.570;2023-04-25T00:11:23;7.00;99.90
23237;DHT22;11787;52.018;8.570;2023-04-25T00:13:49;7.00;99.90
23237;DHT22;11787;52.018;8.570;2023-04-25T00:16:16;7.00;99.90
23237;DHT22;11787;52.018;8.570;2023-04-25T00:18:42;7.00;99.90
23237;DHT22;11787;52.018;8.570;2023-04-25T00:21:08;7.00;99.90
23237;DHT22;11787;52.018;8.570;2023-04-25T00:23:34;7.00;99.90
23237;DHT22;11787;52.018;8.570;2023-04-25T00:26:02;6.90;99.90
23237;DHT22;11787;52.018;8.570;2023-04-25T00:28:28;6.90;99.90
23237;DHT22;11787;52.018;8.570;2023-04-25T00:30:53;6.90;99.90
23237;DHT22;11787;52.018;8.570;2023-04-25T00:33:19;6.90;99.90
23237;DHT22;11787;52.018;8.570;2023-04-25T00:35:44;6.90;99.90
23237;DHT22;11787;52.018;8.570;2023-04-25T00:38:10;6.90;99.90
23237;DHT22;11787;52.018;8.570;2023-04-25T00:40:36;6.80;99.90
23237;DHT22;11787;52.018;8.570;2023-04-25T00:43:01;6.80;99.90
23237;DHT22;11787;52.018;8.570;2023-04-25T00:45:30;6.80;99.90
23237;DHT22;11787;52.018;8.570;2023-04-25T00:47:56;6.70;99.90
23237;DHT22;11787;52.018;8.570;2023-04-25T00:50:22;6.70;99.90
23237;DHT22;11787;52.018;8.570;2023-04-25T00:52:48;6.70;99.90
23237;DHT22;11787;52.018;8.570;2023-04-25T00:55:14;6.70;99.90
23237;DHT22;11787;52.018;8.570;2023-04-25T00:57:41;6.80;99.90
23237;DHT22;11787;52.018;8.570;2023-04-25T01:00:07;6.80;99.90
23237;DHT22;11787;52.018;8.570;2023-04-25T01:02:35;6.80;99.90
23237;DHT22;11787;52.018;8.570;2023-04-25T01:05:02;6.80;99.90
23237;DHT22;11787;52.018;8.570;2023-04-25T01:07:27;6.80;99.90
23237;DHT22;11787;52.018;8.570;2023-04-25T01:09:53;6.70;99.90
23237;DHT22;11787;52.018;8.570;2023-04-25T01:12:19;6.70;99.90
23237;DHT22;11787;52.018;8.570;2023-04-25T01:14:45;6.80;99.90
23237;DHT22;11787;52.018;8.570;2023-04-25T01:17:12;6.80;99.90
23237;DHT22;11787;52.018;8.570;2023-04-25T01:19:37;6.80;99.90
23237;DHT22;11787;52.018;8.570;2023-04-25T01:22:03;6.80;99.90
23237;DHT22;11787;52.018;8.570;2023-04-25T01:24:31;6.80;99.90
23237;DHT22;11787;52.018;8.570;2023-04-25T01:26:58;6.70;99.90
23237;DHT22;11787;52.018;8.570;2023-04-25T01:29:26;6.70;99.90
23237;DHT22;11787;52.018;8.570;2023-04-25T01:31:53;6.70;99.90
23237;DHT22;11787;52.018;8.570;2023-04-25T01:34:18;6.70;99.90
23237;DHT22;11787;52.018;8.570;2023-04-25T01:36:44;6.70;99.90
23237;DHT22;11787;52.018;8.570;2023-04-25T01:39:10;6.70;99.90
23237;DHT22;11787;52.018;8.570;2023-04-25T01:41:36;6.70;99.90
23237;DHT22;11787;52.018;8.570;2023-04-25T01:44:02;6.60;99.90
23237;DHT22;11787;52.018;8.570;2023-04-25T01:46:28;6.60;99.90
23237;DHT22;11787;52.018;8.570;2023-04-25T01:48:54;6.70;99.90
23237;DHT22;11787;52.018;8.570;2023-04-25T01:51:20;6.60;99.90
23237;DHT22;11787;52.018;8.570;2023-04-25T01:53:46;6.70;99.90
23237;DHT22;11787;52.018;8.570;2023-04-25T01:56:11;6.60;99.90
23237;DHT22;11787;52.018;8.570;2023-04-25T01:58:37;6.60;99.90
23237;DHT22;11787;52.018;8.570;2023-04-25T02:01:02;6.60;99.90
23237;DHT22;11787;52.018;8.570;2023-04-25T02:03:29;6.60;99.90
23237;DHT22;11787;52.018;8.570;2023-04-25T02:05:55;6.70;99.90
23237;DHT22;11787;52.018;8.570;2023-04-25T02:08:21;6.70;99.90
23237;DHT22;11787;52.018;8.570;2023-04-25T02:10:46;6.70;99.90
23237;DHT22;11787;52.018;8.570;2023-04-25T02:13:12;6.70;99.90
23237;DHT22;11787;52.018;8.570;2023-04-25T02:15:37;6.70;99.90
23237;DHT22;11787;52.018;8.570;2023-04-25T02:18:03;6.70;99.90
23237;DHT22;11787;52.018;8.570;2023-04-25T02:20:29;6.70;99.90
23237;DHT22;11787;52.018;8.570;2023-04-25T02:22:55;6.80;99.90
23237;DHT22;11787;52.018;8.570;2023-04-25T02:25:21;6.80;99.90
23237;DHT22;11787;52.018;8.570;2023-04-25T02:27:47;6.90;99.90
23237;DHT22;11787;52.018;8.570;2023-04-25T02:30:13;6.90;99.90
23237;DHT22;11787;52.018;8.570;2023-04-25T02:32:39;6.90;99.90
23237;DHT22;11787;52.018;8.570;2023-04-25T02:35:06;6.90;99.90
23237;DHT22;11787;52.018;8.570;2023-04-25T02:37:33;6.90;99.90
23237;DHT22;11787;52.018;8.570;2023-04-25T02:39:58;6.90;99.90
23237;DHT22;11787;52.018;8.570;2023-04-25T02:42:24;6.90;99.90
23237;DHT22;11787;52.018;8.570;2023-04-25T02:44:50;6.90;99.90
23237;DHT22;11787;52.018;8.570;2023-04-25T02:47:15;6.90;99.90
23237;DHT22;11787;52.018;8.570;2023-04-25T02:49:41;6.90;99.90
23237;DHT22;11787;52.018;8.570;2023-04-25T02:52:07;6.90;99.90
23237;DHT22;11787;52.018;8.570;2023-04-25T02:54:32;7.00;99.90
23237;DHT22;11787;52.018;8.570;2023-04-25T02:56:58;6.90;99.90
23237;DHT22;11787;52.018;8.570;2023-04-25T02:59:23;6.90;99.90
23237;DHT22;11787;52.018;8.570;2023-04-25T03:01:49;6.90;99.90
23237;DHT22;11787;52.018;8.570;2023-04-25T03:04:14;6.80;99.90
23237;DHT22;11787;52.018;8.570;2023-04-25T03:06:40;6.80;99.90
23237;DHT22;11787;52.018;8.570;2023-04-25T03:09:06;6.80;99.90
23237;DHT22;11787;52.018;8.570;2023-04-25T03:11:31;6.90;99.90
23237;DHT22;11787;52.018;8.570;2023-04-25T03:13:57;6.80;99.90
23237;DHT22;11787;52.018;8.570;2023-04-25T03:16:23;6.80;99.90
23237;DHT22;11787;52.018;8.570;2023-04-25T03:18:48;6.80;99.90
23237;DHT22;11787;52.018;8.570;2023-04-25T03:21:15;6.80;99.90
23237;DHT22;11787;52.018;8.570;2023-04-25T03:23:41;6.80;99.90
23237;DHT22;11787;52.018;8.570;2023-04-25T03:26:06;6.80;99.90
23237;DHT22;11787;52.018;8.570;2023-04-25T03:28:32;6.90;99.90
23237;DHT22;11787;52.018;8.570;2023-04-25T03:30:58;6.90;99.90
23237;DHT22;11787;52.018;8.570;2023-04-25T03:33:23;6.90;99.90
23237;DHT22;11787;52.018;8.570;2023-04-25T03:35:49;6.90;99.90
23237;DHT22;11787;52.018;8.570;2023-04-25T03:38:15;6.80;99.90
23237;DHT22;11787;52.018;8.570;2023-04-25T03:40:41;6.80;99.90
23237;DHT22;11787;52.018;8.570;2023-04-25T03:43:06;6.90;99.90
23237;DHT22;11787;52.018;8.570;2023-04-25T03:45:32;6.80;99.90
23237;DHT22;11787;52.018;8.570;2023-04-25T03:47:58;6.80;99.90
23237;DHT22;11787;52.018;8.570;2023-04-25T03:50:23;6.80;99.90
23237;DHT22;11787;52.018;8.570;2023-04-25T03:52:49;6.80;99.90
23237;DHT22;11787;52.018;8.570;2023-04-25T03:55:15;6.80;99.90
23237;DHT22;11787;52.018;8.570;2023-04-25T03:57:40;6.90;99.90
23237;DHT22;11787;52.018;8.570;2023-04-25T04:00:08;6.90;99.90
23237;DHT22;11787;52.018;8.570;2023-04-25T04:02:35;6.90;99.90
23237;DHT22;11787;52.018;8.570;2023-04-25T04:05:01;6.90;99.90
23237;DHT22;11787;52.018;8.570;2023-04-25T04:07:27;6.90;99.90
23237;DHT22;11787;52.018;8.570;2023-04-25T04:09:53;6.90;99.90
23237;DHT22;11787;52.018;8.570;2023-04-25T04:12:19;6.90;99.90
23237;DHT22;11787;52.018;8.570;2023-04-25T04:14:44;6.80;99.90
23237;DHT22;11787;52.018;8.570;2023-04-25T04:17:10;6.80;99.90
23237;DHT22;11787;52.018;8.570;2023-04-25T04:19:35;6.80;99.90
23237;DHT22;11787;52.018;8.570;2023-04-25T04:22:01;6.70;99.90
23237;DHT22;11787;52.018;8.570;2023-04-25T04:24:26;6.70;99.90
23237;DHT22;11787;52.018;8.570;2023-04-25T04:26:52;6.70;99.90
23237;DHT22;11787;52.018;8.570;2023-04-25T04:29:18;6.70;99.90
23237;DHT22;11787;52.018;8.570;2023-04-25T04:31:49;6.70;99.90
23237;DHT22;11787;52.018;8.570;2023-04-25T04:34:16;6.70;99.90
23237;DHT22;11787;52.018;8.570;2023-04-25T04:36:41;6.60;99.90
23237;DHT22;11787;52.018;8.570;2023-04-25T04:39:07;6.70;99.90
23237;DHT22;11787;52.018;8.570;2023-04-25T04:41:34;6.70;99.90
23237;DHT22;11787;52.018;8.570;2023-04-25T04:43:59;6.70;99.90
23237;DHT22;11787;52.018;8.570;2023-04-25T04:46:26;6.80;99.90
23237;DHT22;11787;52.018;8.570;2023-04-25T04:48:53;6.70;99.90
23237;DHT22;11787;52.018;8.570;2023-04-25T04:51:18;6.70;99.90
23237;DHT22;11787;52.018;8.570;2023-04-25T04:53:44;6.70;99.90
23237;DHT22;11787;52.018;8.570;2023-04-25T04:56:10;6.70;99.90
23237;DHT22;11787;52.018;8.570;2023-04-25T04:58:36;6.70;99.90
23237;DHT22;11787;52.018;8.570;2023-04-25T05:01:02;6.70;99.90
23237;DHT22;11787;52.018;8.570;2023-04-25T05:03:27;6.70;99.90
23237;DHT22;11787;52.018;8.570;2023-04-25T05:05:53;6.70;99.90
23237;DHT22;11787;52.018;8.570;2023-04-25T05:08:18;6.70;99.90
23237;DHT22;11787;52.018;8.570;2023-04-25T05:10:44;6.80;99.90
23237;DHT22;11787;52.018;8.570;2023-04-25T05:13:09;6.70;99.90
23237;DHT22;11787;52.018;8.570;2023-04-25T05:15:35;6.70;99.90
23237;DHT22;11787;52.018;8.570;2023-04-25T05:18:01;6.70;99.90
23237;DHT22;11787;52.018;8.570;2023-04-25T05:20:26;6.80;99.90
23237;DHT22;11787;52.018;8.570;2023-04-25T05:22:52;6.80;99.90
23237;DHT22;11787;52.018;8.570;2023-04-25T05:25:17;6.80;99.90
23237;DHT22;11787;52.018;8.570;2023-04-25T05:27:43;6.80;99.90
23237;DHT22;11787;52.018;8.570;2023-04-25T05:30:08;6.80;99.90
23237;DHT22;11787;52.018;8.570;2023-04-25T05:32:34;6.80;99.90
23237;DHT22;11787;52.018;8.570;2023-04-25T05:35:01;6.90;99.90
23237;DHT22;11787;52.018;8.570;2023-04-25T05:37:26;6.90;99.90
23237;DHT22;11787;52.018;8.570;2023-04-25T05:39:52;6.90;99.90
23237;DHT22;11787;52.018;8.570;2023-04-25T05:42:17;6.90;99.90
23237;DHT22;11787;52.018;8.570;2023-04-25T05:44:43;6.90;99.90
23237;DHT22;11787;52.018;8.570;2023-04-25T05:47:08;6.80;99.90
23237;DHT22;11787;52.018;8.570;2023-04-25T05:49:34;6.90;99.90
23237;DHT22;11787;52.018;8.570;2023-04-25T05:51:59;6.90;99.90
23237;DHT22;11787;52.018;8.570;2023-04-25T05:54:25;7.00;99.90
23237;DHT22;11787;52.018;8.570;2023-04-25T05:56:50;7.00;99.90
23237;DHT22;11787;52.018;8.570;2023-04-25T05:59:15;7.00;99.90
23237;DHT22;11787;52.018;8.570;2023-04-25T06:01:41;7.00;99.90
23237;DHT22;11787;52.018;8.570;2023-04-25T06:04:07;7.00;99.90
23237;DHT22;11787;52.018;8.570;2023-04-25T06:06:32;7.00;99.90
23237;DHT22;11787;52.018;8.570;2023-04-25T06:08:58;7.10;99.90
23237;DHT22;11787;52.018;8.570;2023-04-25T06:11:23;7.00;99.90
23237;DHT22;11787;52.018;8.570;2023-04-25T06:13:49;7.00;99.90
23237;DHT22;11787;52.018;8.570;2023-04-25T06:16:14;7.10;99.90
23237;DHT22;11787;52.018;8.570;2023-04-25T06:18:40;7.10;99.90
23237;DHT22;11787;52.018;8.570;2023-04-25T06:21:06;7.20;99.90
23237;DHT22;11787;52.018;8.570;2023-04-25T06:23:31;7.20;99.90
23237;DHT22;11787;52.018;8.570;2023-04-25T06:25:57;7.20;99.90
23237;DHT22;11787;52.018;8.570;2023-04-25T06:28:22;7.10;99.90
23237;DHT22;11787;52.018;8.570;2023-04-25T06:30:49;7.10;99.90
23237;DHT22;11787;52.018;8.570;2023-04-25T06:33:15;7.20;99.90
23237;DHT22;11787;52.018;8.570;2023-04-25T06:35:40;7.30;99.90
23237;DHT22;11787;52.018;8.570;2023-04-25T06:38:06;7.20;99.90
23237;DHT22;11787;52.018;8.570;2023-04-25T06:40:31;7.30;99.90
23237;DHT22;11787;52.018;8.570;2023-04-25T06:42:57;7.20;99.90
23237;DHT22;11787;52.018;8.570;2023-04-25T06:45:22;7.30;99.90
23237;DHT22;11787;52.018;8.570;2023-04-25T06:47:48;7.30;99.90
23237;DHT22;11787;52.018;8.570;2023-04-25T06:50:13;7.40;99.90
23237;DHT22;11787;52.018;8.570;2023-04-25T06:52:39;7.40;99.90
23237;DHT22;11787;52.018;8.570;2023-04-25T06:55:04;7.40;99.90
23237;DHT22;11787;52.018;8.570;2023-04-25T06:57:30;7.30;99.90
23237;DHT22;11787;52.018;8.570;2023-04-25T06:59:56;7.40;99.90
23237;DHT22;11787;52.018;8.570;2023-04-25T07:02:21;7.40;99.90
23237;DHT22;11787;52.018;8.570;2023-04-25T07:04:47;7.40;99.90
23237;DHT22;11787;52.018;8.570;2023-04-25T07:07:13;7.40;99.90
23237;DHT22;11787;52.018;8.570;2023-04-25T07:09:38;7.30;99.90
23237;DHT22;11787;52.018;8.570;2023-04-25T07:12:04;7.40;99.90
23237;DHT22;11787;52.018;8.570;2023-04-25T07:14:29;7.50;99.90
23237;DHT22;11787;52.018;8.570;2023-04-25T07:16:55;7.60;99.90
23237;DHT22;11787;52.018;8.570;2023-04-25T07:19:22;7.70;99.90
23237;DHT22;11787;52.018;8.570;2023-04-25T07:21:49;7.60;99.90
23237;DHT22;11787;52.018;8.570;2023-04-25T07:24:14;7.60;99.90
23237;DHT22;11787;52.018;8.570;2023-04-25T07:26:40;7.70;99.90
23237;DHT22;11787;52.018;8.570;2023-04-25T07:29:05;7.60;99.90
23237;DHT22;11787;52.018;8.570;2023-04-25T07:31:31;7.60;99.90
23237;DHT22;11787;52.018;8.570;2023-04-25T07:33:56;7.80;99.90
23237;DHT22;11787;52.018;8.570;2023-04-25T07:36:22;7.80;99.90
23237;DHT22;11787;52.018;8.570;2023-04-25T07:38:47;7.80;99.90
23237;DHT22;11787;52.018;8.570;2023-04-25T07:41:13;7.90;99.90
23237;DHT22;11787;52.018;8.570;2023-04-25T07:43:38;8.00;99.90
23237;DHT22;11787;52.018;8.570;2023-04-25T07:46:04;8.20;99.90
23237;DHT22;11787;52.018;8.570;2023-04-25T07:48:30;8.30;99.90
23237;DHT22;11787;52.018;8.570;2023-04-25T07:50:55;8.20;99.90
23237;DHT22;11787;52.018;8.570;2023-04-25T07:53:21;8.20;99.90
23237;DHT22;11787;52.018;8.570;2023-04-25T07:55:47;8.20;99.90
23237;DHT22;11787;52.018;8.570;2023-04-25T07:58:12;8.20;99.90
23237;DHT22;11787;52.018;8.570;2023-04-25T08:00:38;8.10;99.90
23237;DHT22;11787;52.018;8.570;2023-04-25T08:03:03;8.10;99.90
23237;DHT22;11787;52.018;8.570;2023-04-25T08:05:29;8.20;99.90
23237;DHT22;11787;52.018;8.570;2023-04-25T08:07:54;8.10;99.90
23237;DHT22;11787;52.018;8.570;2023-04-25T08:10:22;8.30;99.90
23237;DHT22;11787;52.018;8.570;2023-04-25T08:12:48;8.50;99.90
23237;DHT22;11787;52.018;8.570;2023-04-25T08:15:13;8.60;99.90
23237;DHT22;11787;52.018;8.570;2023-04-25T08:17:39;8.80;99.90
23237;DHT22;11787;52.018;8.570;2023-04-25T08:20:05;9.00;99.90
23237;DHT22;11787;52.018;8.570;2023-04-25T08:22:31;8.90;99.90
23237;DHT22;11787;52.018;8.570;2023-04-25T08:24:56;8.70;99.90
23237;DHT22;11787;52.018;8.570;2023-04-25T08:27:22;8.70;99.90
23237;DHT22;11787;52.018;8.570;2023-04-25T08:29:49;8.80;99.90
23237;DHT22;11787;52.018;8.570;2023-04-25T08:32:14;8.70;99.90
23237;DHT22;11787;52.018;8.570;2023-04-25T08:34:40;8.70;99.90
23237;DHT22;11787;52.018;8.570;2023-04-25T08:37:08;8.80;99.90
23237;DHT22;11787;52.018;8.570;2023-04-25T08:39:35;9.00;99.90
23237;DHT22;11787;52.018;8.570;2023-04-25T08:42:01;9.00;99.90
23237;DHT22;11787;52.018;8.570;2023-04-25T08:44:28;8.90;99.90
23237;DHT22;11787;52.018;8.570;2023-04-25T08:46:55;8.90;99.90
23237;DHT22;11787;52.018;8.570;2023-04-25T08:49:21;9.10;99.90
23237;DHT22;11787;52.018;8.570;2023-04-25T08:51:47;9.30;99.90
23237;DHT22;11787;52.018;8.570;2023-04-25T08:54:16;9.10;99.90
23237;DHT22;11787;52.018;8.570;2023-04-25T08:56:45;9.10;99.90
23237;DHT22;11787;52.018;8.570;2023-04-25T08:59:13;9.20;99.90
23237;DHT22;11787;52.018;8.570;2023-04-25T09:01:39;9.30;99.90
23237;DHT22;11787;52.018;8.570;2023-04-25T09:04:04;9.30;99.90
23237;DHT22;11787;52.018;8.570;2023-04-25T09:06:30;9.30;99.90
23237;DHT22;11787;52.018;8.570;2023-04-25T09:09:06;9.30;99.90
23237;DHT22;11787;52.018;8.570;2023-04-25T09:11:33;9.30;99.90
23237;DHT22;11787;52.018;8.570;2023-04-25T09:19:31;9.50;99.90
23237;DHT22;11787;52.018;8.570;2023-04-25T09:21:57;9.60;99.90
23237;DHT22;11787;52.018;8.570;2023-04-25T09:24:30;9.40;99.90
23237;DHT22;11787;52.018;8.570;2023-04-25T09:26:56;9.70;99.90
23237;DHT22;11787;52.018;8.570;2023-04-25T09:29:28;9.90;99.90
23237;DHT22;11787;52.018;8.570;2023-04-25T09:32:14;9.90;99.90
23237;DHT22;11787;52.018;8.570;2023-04-25T09:34:42;10.30;99.90
23237;DHT22;11787;52.018;8.570;2023-04-25T09:37:11;10.20;99.90
23237;DHT22;11787;52.018;8.570;2023-04-25T09:39:37;10.10;99.90
23237;DHT22;11787;52.018;8.570;2023-04-25T09:42:03;10.00;99.90
23237;DHT22;11787;52.018;8.570;2023-04-25T09:44:29;10.10;99.90
23237;DHT22;11787;52.018;8.570;2023-04-25T09:46:54;9.80;99.90
23237;DHT22;11787;52.018;8.570;2023-04-25T09:49:20;9.60;99.90
23237;DHT22;11787;52.018;8.570;2023-04-25T09:51:58;9.50;99.90
23237;DHT22;11787;52.018;8.570;2023-04-25T09:54:24;9.50;99.90
23237;DHT22;11787;52.018;8.570;2023-04-25T09:56:51;9.50;99.90
23237;DHT22;11787;52.018;8.570;2023-04-25T09:59:16;9.40;99.90
23237;DHT22;11787;52.018;8.570;2023-04-25T10:01:44;9.30;99.90
23237;DHT22;11787;52.018;8.570;2023-04-25T10:04:12;9.10;99.90
23237;DHT22;11787;52.018;8.570;2023-04-25T10:06:39;9.10;99.90
23237;DHT22;11787;52.018;8.570;2023-04-25T10:09:05;9.20;99.90
23237;DHT22;11787;52.018;8.570;2023-04-25T10:11:32;9.10;99.90
23237;DHT22;11787;52.018;8.570;2023-04-25T10:13:59;9.00;99.90
23237;DHT22;11787;52.018;8.570;2023-04-25T10:16:25;8.90;99.90
23237;DHT22;11787;52.018;8.570;2023-04-25T10:18:51;8.80;99.90
23237;DHT22;11787;52.018;8.570;2023-04-25T10:21:16;8.70;99.90
23237;DHT22;11787;52.018;8.570;2023-04-25T10:23:43;8.70;99.90
23237;DHT22;11787;52.018;8.570;2023-04-25T10:26:10;8.60;99.90
23237;DHT22;11787;52.018;8.570;2023-04-25T10:31:23;8.40;99.90
23237;DHT22;11787;52.018;8.570;2023-04-25T10:33:48;8.50;99.90
23237;DHT22;11787;52.018;8.570;2023-04-25T10:36:15;8.60;99.90
23237;DHT22;11787;52.018;8.570;2023-04-25T10:38:43;8.70;99.90
23237;DHT22;11787;52.018;8.570;2023-04-25T10:41:09;8.80;99.90
23237;DHT22;11787;52.018;8.570;2023-04-25T10:43:42;8.80;99.90
23237;DHT22;11787;52.018;8.570;2023-04-25T10:48:43;9.00;99.90
23237;DHT22;11787;52.018;8.570;2023-04-25T10:51:10;9.00;99.90
23237;DHT22;11787;52.018;8.570;2023-04-25T10:53:36;9.10;99.90
23237;DHT22;11787;52.018;8.570;2023-04-25T10:56:19;9.30;99.90
23237;DHT22;11787;52.018;8.570;2023-04-25T10:58:45;9.70;99.90
23237;DHT22;11787;52.018;8.570;2023-04-25T11:01:15;10.30;99.90
23237;DHT22;11787;52.018;8.570;2023-04-25T11:03:44;10.90;99.90
23237;DHT22;11787;52.018;8.570;2023-04-25T11:06:29;10.90;99.90
23237;DHT22;11787;52.018;8.570;2023-04-25T11:08:57;10.50;99.90
23237;DHT22;11787;52.018;8.570;2023-04-25T11:11:25;10.30;99.90
23237;DHT22;11787;52.018;8.570;2023-04-25T11:13:51;10.20;99.90
23237;DHT22;11787;52.018;8.570;2023-04-25T11:16:17;10.00;99.90
23237;DHT22;11787;52.018;8.570;2023-04-25T11:18:43;9.90;99.90
23237;DHT22;11787;52.018;8.570;2023-04-25T11:21:10;9.90;99.90
23237;DHT22;11787;52.018;8.570;2023-04-25T11:23:36;9.80;99.90
23237;DHT22;11787;52.018;8.570;2023-04-25T11:26:03;9.70;99.90
23237;DHT22;11787;52.018;8.570;2023-04-25T11:28:29;9.50;99.90
23237;DHT22;11787;52.018;8.570;2023-04-25T11:30:54;9.30;99.90
23237;DHT22;11787;52.018;8.570;2023-04-25T11:33:24;9.20;99.90
23237;DHT22;11787;52.018;8.570;2023-04-25T11:35:52;9.10;99.90
23237;DHT22;11787;52.018;8.570;2023-04-25T11:38:18;9.20;99.90
23237;DHT22;11787;52.018;8.570;2023-04-25T11:40:43;9.60;99.90
23237;DHT22;11787;52.018;8.570;2023-04-25T11:43:09;9.70;99.90
23237;DHT22;11787;52.018;8.570;2023-04-25T11:45:36;9.70;99.90
23237;DHT22;11787;52.018;8.570;2023-04-25T11:48:02;9.60;99.90
23237;DHT22;11787;52.018;8.570;2023-04-25T11:50:28;9.50;99.90
23237;DHT22;11787;52.018;8.570;2023-04-25T11:52:56;9.40;99.90
23237;DHT22;11787;52.018;8.570;2023-04-25T11:55:22;9.10;99.90
23237;DHT22;11787;52.018;8.570;2023-04-25T11:57:49;9.00;99.90
23237;DHT22;11787;52.018;8.570;2023-04-25T12:00:18;8.80;99.90
23237;DHT22;11787;52.018;8.570;2023-04-25T12:02:55;8.40;99.90
23237;DHT22;11787;52.018;8.570;2023-04-25T12:05:25;8.30;99.90
23237;DHT22;11787;52.018;8.570;2023-04-25T12:07:51;8.40;99.90
23237;DHT22;11787;52.018;8.570;2023-04-25T12:10:18;8.40;99.90
23237;DHT22;11787;52.018;8.570;2023-04-25T12:12:45;8.60;99.90
23237;DHT22;11787;52.018;8.570;2023-04-25T12:15:15;8.60;99.90
23237;DHT22;11787;52.018;8.570;2023-04-25T12:17:45;8.60;99.90
23237;DHT22;11787;52.018;8.570;2023-04-25T12:20:19;8.80;99.90
23237;DHT22;11787;52.018;8.570;2023-04-25T12:22:46;9.00;99.90
23237;DHT22;11787;52.018;8.570;2023-04-25T12:25:37;9.10;99.90
23237;DHT22;11787;52.018;8.570;2023-04-25T12:28:25;9.20;99.90
23237;DHT22;11787;52.018;8.570;2023-04-25T12:30:56;9.20;99.90
23237;DHT22;11787;52.018;8.570;2023-04-25T12:33:23;9.50;99.90
23237;DHT22;11787;52.018;8.570;2023-04-25T12:35:50;9.60;99.90
23237;DHT22;11787;52.018;8.570;2023-04-25T12:38:26;9.50;99.90
23237;DHT22;11787;52.018;8.570;2023-04-25T12:40:53;9.50;99.90
23237;DHT22;11787;52.018;8.570;2023-04-25T12:43:19;9.40;99.90
23237;DHT22;11787;52.018;8.570;2023-04-25T12:45:48;9.60;99.90
23237;DHT22;11787;52.018;8.570;2023-04-25T12:48:14;9.80;99.90
23237;DHT22;11787;52.018;8.570;2023-04-25T12:50:40;10.00;99.90
23237;DHT22;11787;52.018;8.570;2023-04-25T12:53:06;10.30;99.90
23237;DHT22;11787;52.018;8.570;2023-04-25T12:55:32;10.70;99.90
23237;DHT22;11787;52.018;8.570;2023-04-25T12:57:57;10.90;99.90
23237;DHT22;11787;52.018;8.570;2023-04-25T13:00:22;10.90;99.90
23237;DHT22;11787;52.018;8.570;2023-04-25T13:02:48;11.00;99.90
23237;DHT22;11787;52.018;8.570;2023-04-25T13:05:14;11.10;99.90
23237;DHT22;11787;52.018;8.570;2023-04-25T13:07:40;11.50;99.90
23237;DHT22;11787;52.018;8.570;2023-04-25T13:10:07;11.30;99.90
23237;DHT22;11787;52.018;8.570;2023-04-25T13:12:33;11.30;99.90
23237;DHT22;11787;52.018;8.570;2023-04-25T13:14:58;11.00;99.90
23237;DHT22;11787;52.018;8.570;2023-04-25T13:17:24;10.70;99.90
23237;DHT22;11787;52.018;8.570;2023-04-25T13:19:49;10.60;99.90
23237;DHT22;11787;52.018;8.570;2023-04-25T13:22:15;10.40;99.90
23237;DHT22;11787;52.018;8.570;2023-04-25T13:24:42;9.80;99.90
23237;DHT22;11787;52.018;8.570;2023-04-25T13:27:08;9.10;99.90
23237;DHT22;11787;52.018;8.570;2023-04-25T13:29:34;8.80;99.90
23237;DHT22;11787;52.018;8.570;2023-04-25T13:32:01;8.30;99.90
23237;DHT22;11787;52.018;8.570;2023-04-25T13:34:30;8.10;99.90
23237;DHT22;11787;52.018;8.570;2023-04-25T13:36:56;7.80;99.90
23237;DHT22;11787;52.018;8.570;2023-04-25T13:39:21;7.90;99.90
23237;DHT22;11787;52.018;8.570;2023-04-25T13:41:47;7.90;99.90
23237;DHT22;11787;52.018;8.570;2023-04-25T13:44:14;7.80;99.90
23237;DHT22;11787;52.018;8.570;2023-04-25T13:46:39;7.90;99.90
23237;DHT22;11787;52.018;8.570;2023-04-25T13:49:05;7.90;99.90
23237;DHT22;11787;52.018;8.570;2023-04-25T13:51:31;8.10;99.90
23237;DHT22;11787;52.018;8.570;2023-04-25T13:53:57;8.40;99.90
23237;DHT22;11787;52.018;8.570;2023-04-25T13:56:22;8.80;99.90
23237;DHT22;11787;52.018;8.570;2023-04-25T13:58:50;9.20;99.90
23237;DHT22;11787;52.018;8.570;2023-04-25T14:01:17;9.40;99.90
23237;DHT22;11787;52.018;8.570;2023-04-25T14:03:43;9.50;99.90
23237;DHT22;11787;52.018;8.570;2023-04-25T14:06:08;9.70;99.90
23237;DHT22;11787;52.018;8.570;2023-04-25T14:08:34;9.90;99.90
23237;DHT22;11787;52.018;8.570;2023-04-25T14:11:00;10.20;99.90
23237;DHT22;11787;52.018;8.570;2023-04-25T14:31:19;9.90;99.90
23237;DHT22;11787;52.018;8.570;2023-04-25T14:33:45;9.90;99.90
23237;DHT22;11787;52.018;8.570;2023-04-25T14:36:11;9.90;99.90
23237;DHT22;11787;52.018;8.570;2023-04-25T14:38:36;10.00;99.90
23237;DHT22;11787;52.018;8.570;2023-04-25T14:41:02;10.10;99.90
23237;DHT22;11787;52.018;8.570;2023-04-25T14:43:28;10.10;99.90
23237;DHT22;11787;52.018;8.570;2023-04-25T14:45:54;10.20;99.90
23237;DHT22;11787;52.018;8.570;2023-04-25T14:48:19;10.20;99.90
23237;DHT22;11787;52.018;8.570;2023-04-25T14:50:45;10.50;99.90
23237;DHT22;11787;52.018;8.570;2023-04-25T14:53:11;10.40;99.90
23237;DHT22;11787;52.018;8.570;2023-04-25T14:55:37;10.20;99.90
23237;DHT22;11787;52.018;8.570;2023-04-25T14:58:03;10.20;99.90
23237;DHT22;11787;52.018;8.570;2023-04-25T15:00:29;10.20;99.90
23237;DHT22;11787;52.018;8.570;2023-04-25T15:02:56;10.20;99.90
23237;DHT22;11787;52.018;8.570;2023-04-25T15:05:22;10.20;99.90
23237;DHT22;11787;52.018;8.570;2023-04-25T15:07:47;10.20;99.90
23237;DHT22;11787;52.018;8.570;2023-04-25T15:10:13;10.10;99.90
23237;DHT22;11787;52.018;8.570;2023-04-25T15:12:44;10.40;99.90
23237;DHT22;11787;52.018;8.570;2023-04-25T15:15:11;10.30;99.90
23237;DHT22;11787;52.018;8.570;2023-04-25T15:17:41;10.30;99.90
23237;DHT22;11787;52.018;8.570;2023-04-25T15:20:09;10.20;99.90
23237;DHT22;11787;52.018;8.570;2023-04-25T15:22:35;9.90;99.90
23237;DHT22;11787;52.018;8.570;2023-04-25T15:25:01;9.70;99.90
23237;DHT22;11787;52.018;8.570;2023-04-25T15:27:28;9.60;99.90
23237;DHT22;11787;52.018;8.570;2023-04-25T15:29:53;9.60;99.90
23237;DHT22;11787;52.018;8.570;2023-04-25T15:32:19;9.70;99.90
23237;DHT22;11787;52.018;8.570;2023-04-25T15:34:46;9.70;99.90
23237;DHT22;11787;52.018;8.570;2023-04-25T15:37:11;9.70;99.90
23237;DHT22;11787;52.018;8.570;2023-04-25T15:39:37;9.70;99.90
23237;DHT22;11787;52.018;8.570;2023-04-25T15:42:03;9.70;99.90
23237;DHT22;11787;52.018;8.570;2023-04-25T15:44:28;9.70;99.90
23237;DHT22;11787;52.018;8.570;2023-04-25T15:46:54;9.80;99.90
23237;DHT22;11787;52.018;8.570;2023-04-25T15:49:19;9.60;99.90
23237;DHT22;11787;52.018;8.570;2023-04-25T15:51:49;9.50;99.90
23237;DHT22;11787;52.018;8.570;2023-04-25T15:54:17;9.40;99.90
23237;DHT22;11787;52.018;8.570;2023-04-25T15:56:42;9.40;99.90
23237;DHT22;11787;52.018;8.570;2023-04-25T15:59:08;9.30;99.90
23237;DHT22;11787;52.018;8.570;2023-04-25T16:01:34;9.20;99.90
23237;DHT22;11787;52.018;8.570;2023-04-25T16:04:00;9.20;99.90
23237;DHT22;11787;52.018;8.570;2023-04-25T16:06:26;9.30;99.90
23237;DHT22;11787;52.018;8.570;2023-04-25T16:08:52;9.50;99.90